Macune, Texas
Current Conditions -  °F | °C
As of 4:15 AM on Thursday 29 Jan 2015 (Local Time) from KOCH Reporting Station
Overcast Overcast  
Wind Chill: 55°   Ceiling: 200
Heat Index: 55°   Visibility: 3mi
Dew Point: 54°   Wind: 10mph
Humidity: 94%   Direction: 210°SSW
Pressure: 30.15"   Gusts: NA
Location:  31.516°N, 94.1687°W
Report Text: KOCH 291015Z AUTO 21009KT 3SM OVC002 13/12 A3015 RMK AO1
Loading
Personal Weather Stations






























Interactive Weather Map New forecast layout! Learn more

10-Day Weather Forecast

Advertisements
Track Severe Weather on mobile